Terminal Aerodrome Forecast
Issued by NWS

Home | Current Version | Previous Version | Text Only | Print | Product List | Glossary On
Versions: 1 2 3 4 5 6 7 8 9 10 11 12 13 14 15 16 17 18 19
000
FTUS43 KSGF 311100
TAFJLN
TAF
KJLN 311132Z 3112/0112 01006KT 6SM -DZ BR BKN007 OVC012
      TEMPO 3114/3117 SCT007 OVC012
     FM311700 02008KT P6SM OVC015
     FM312000 02008KT P6SM SCT020 BKN035
     FM010600 05003KT P6SM OVC012
     FM010900 05003KT 6SM BR SCT005 OVC009=

USA.gov is the U.S. government's official web portal to all federal, state and local government web resources and services.